Terminal Aerodrome Forecast
Issued by NWS Pendleton, OR

Home | Current Version | Previous Version | Text Only | Print | Product List | Glossary On
Versions: 1 2 3 4 5 6 7 8 9 10 11 12 13 14 15 16 17 18 19 20 21 22 23 24 25
089
FTUS46 KPDT 220523
TAFPDT
TAF
KPDT 220523Z 2206/2306 26008KT P6SM VCSH SCT025 BKN040
     FM221500 23008KT P6SM SCT050 BKN150
     FM221800 28009KT P6SM BKN200=

USA.gov is the U.S. government's official web portal to all federal, state and local government web resources and services.